Time;durP1;ratioP1;P1;durP2;ratioP2;P2;SDS_P1;SDS_P2;PMS_P1;PMS_P2;Temp;Humidity;BMP_temperature;BMP_pressure;BME280_temperature;BME280_humidity;BME280_pressure;Samples;Min_cycle;Max_cycle;Signal;HPM_P1;HPM_P2
2023/10/01 00:01:44;;;;;;;14.07;6.75;;;11.90;99.90;;;11.61;100.00;98211.00;5042205;28;20029;-37
2023/10/01 00:04:11;;;;;;;12.20;6.68;;;11.90;99.90;;;11.58;100.00;98214.63;5038473;28;20025;-38
2023/10/01 00:06:37;;;;;;;15.82;6.50;;;11.90;99.90;;;11.55;100.00;98211.19;5044272;28;20043;-39
2023/10/01 00:09:07;;;;;;;15.48;7.25;;;11.90;99.90;;;11.48;100.00;98209.63;5042218;28;20508;-37
2023/10/01 00:11:39;;;;;;;14.27;6.90;;;11.80;99.90;;;11.47;100.00;98208.78;5038579;28;20036;-37
2023/10/01 00:14:06;;;;;;;13.95;7.05;;;11.80;99.90;;;11.40;100.00;98205.44;5039568;28;20078;-37
2023/10/01 00:16:32;;;;;;;14.90;6.88;;;11.70;99.90;;;11.39;100.00;98208.97;5035756;28;20561;-37
2023/10/01 00:18:59;;;;;;;13.77;7.72;;;11.70;99.90;;;11.37;100.00;98207.28;5034112;28;20435;-37
2023/10/01 00:21:27;;;;;;;14.55;7.28;;;11.60;99.90;;;11.35;100.00;98209.97;5042873;28;20033;-37
2023/10/01 00:23:54;;;;;;;12.88;7.20;;;11.60;99.90;;;11.33;100.00;98209.16;5038269;28;20452;-37
2023/10/01 00:26:20;;;;;;;17.42;8.00;;;11.60;99.90;;;11.32;100.00;98199.47;5039697;28;20115;-37
2023/10/01 00:28:46;;;;;;;12.43;6.72;;;11.60;99.90;;;11.30;100.00;98197.78;5039092;28;20032;-37
2023/10/01 00:31:13;;;;;;;12.63;7.07;;;11.60;99.90;;;11.28;100.00;98200.47;5035671;28;20040;-37
2023/10/01 00:33:39;;;;;;;15.20;7.22;;;11.60;99.90;;;11.23;100.00;98192.69;5042439;28;20119;-37
2023/10/01 00:36:06;;;;;;;13.25;7.00;;;11.60;99.90;;;11.22;100.00;98188.31;5040248;28;20253;-37
2023/10/01 00:38:31;;;;;;;14.07;7.13;;;11.60;99.90;;;11.21;100.00;98197.13;5037640;28;20040;-38
2023/10/01 00:40:57;;;;;;;14.05;7.63;;;11.50;99.90;;;11.19;100.00;98193.66;5038825;28;20538;-37
2023/10/01 00:43:30;;;;;;;12.25;6.88;;;11.50;99.90;;;11.17;100.00;98203.41;5039404;28;20047;-37
2023/10/01 00:45:56;;;;;;;;;;;11.50;99.90;;;11.14;100.00;98200.84;5018249;28;20617;-37
2023/10/01 00:48:23;;;;;;;14.45;7.22;;;11.50;99.90;;;11.12;100.00;98202.66;5040738;28;19920;-38
2023/10/01 00:50:50;;;;;;;16.17;7.47;;;11.40;99.90;;;11.06;100.00;98194.91;5032232;28;20067;-37
2023/10/01 00:53:16;;;;;;;15.75;6.95;;;11.40;99.90;;;11.06;100.00;98194.91;5020783;28;20088;-37
2023/10/01 00:55:41;;;;;;;14.93;7.80;;;11.40;99.90;;;11.03;100.00;98200.25;5035662;28;20119;-37
2023/10/01 00:58:10;;;;;;;14.32;7.07;;;11.40;99.90;;;11.00;100.00;98206.50;5039202;28;20025;-37
2023/10/01 01:00:37;;;;;;;14.40;6.95;;;11.30;99.90;;;10.97;100.00;98192.50;5032472;28;20031;-37
2023/10/01 01:03:18;;;;;;;14.73;6.80;;;11.30;99.90;;;10.91;100.00;98188.25;5037075;28;20119;-37
2023/10/01 01:06:05;;;;;;;15.60;7.40;;;11.30;99.90;;;10.91;100.00;98197.94;5039617;28;20037;-37
2023/10/01 01:08:33;;;;;;;13.63;6.57;;;11.20;99.90;;;10.87;100.00;98197.13;5034497;28;20037;-37
2023/10/01 01:11:03;;;;;;;15.02;7.15;;;11.20;99.90;;;10.82;100.00;98197.28;5041189;28;20716;-37
2023/10/01 01:13:33;;;;;;;14.02;6.60;;;11.20;99.90;;;10.82;100.00;98202.56;5045828;28;20060;-38
2023/10/01 01:16:00;;;;;;;12.73;6.85;;;11.10;99.90;;;10.72;100.00;98190.47;5043601;28;20023;-37
2023/10/01 01:18:26;;;;;;;14.85;6.93;;;11.10;99.90;;;10.80;100.00;98204.38;5039141;28;20345;-37
2023/10/01 01:20:58;;;;;;;14.52;7.20;;;11.10;99.90;;;10.79;100.00;98199.13;5032576;28;20040;-37
2023/10/01 01:23:24;;;;;;;11.27;6.82;;;11.10;99.90;;;10.77;100.00;98196.53;5036502;28;20891;-37
2023/10/01 01:25:52;;;;;;;12.60;6.88;;;11.10;99.90;;;10.76;100.00;98189.50;5036829;28;20544;-37
2023/10/01 01:28:27;;;;;;;12.95;6.95;;;11.10;99.90;;;10.75;100.00;98184.25;5038954;28;20063;-37
2023/10/01 01:30:56;;;;;;;13.80;6.68;;;11.10;99.90;;;10.67;100.00;98180.03;5036704;28;20029;-37
2023/10/01 01:33:26;;;;;;;13.75;7.07;;;11.00;99.90;;;10.69;100.00;98186.16;5039387;28;20056;-37
2023/10/01 01:35:54;;;;;;;16.30;7.75;;;11.00;99.90;;;10.69;100.00;98187.91;5041895;28;20074;-37
2023/10/01 01:38:22;;;;;;;13.40;6.57;;;11.00;99.90;;;10.68;100.00;98183.56;5042054;28;20016;-37
2023/10/01 01:40:51;;;;;;;12.98;6.72;;;11.00;99.90;;;10.67;100.00;98187.94;5031176;28;20033;-39
2023/10/01 01:43:21;;;;;;;14.50;7.38;;;11.00;99.90;;;10.66;100.00;98183.59;5039084;28;20032;-37
2023/10/01 01:45:55;;;;;;;12.68;7.18;;;11.00;99.90;;;10.63;100.00;98182.81;5043196;28;20489;-38
2023/10/01 01:48:25;;;;;;;13.50;7.22;;;11.00;99.90;;;10.59;100.00;98176.75;5041211;28;20032;-37
2023/10/01 01:50:54;;;;;;;13.65;7.28;;;11.00;99.90;;;10.62;100.00;98181.06;5039305;28;20386;-37
2023/10/01 01:53:34;;;;;;;12.80;6.78;;;11.00;99.90;;;10.61;100.00;98180.19;5036975;28;20055;-37
2023/10/01 01:56:04;;;;;;;14.50;7.28;;;11.00;99.90;;;10.63;100.00;98181.03;5036933;28;20102;-37
2023/10/01 01:58:30;;;;;;;14.45;7.55;;;11.00;99.90;;;10.65;100.00;98167.81;5040056;28;20044;-37
2023/10/01 02:01:08;;;;;;;15.38;7.28;;;11.00;99.90;;;10.64;100.00;98173.97;5039728;28;20032;-38
2023/10/01 02:03:37;;;;;;;14.25;7.85;;;11.00;99.90;;;10.62;100.00;98158.19;5042323;28;20123;-37
2023/10/01 02:06:07;;;;;;;13.18;6.78;;;11.00;99.90;;;10.62;100.00;98162.59;5023458;28;20111;-37
2023/10/01 02:08:50;;;;;;;14.30;7.18;;;11.00;99.90;;;10.62;100.00;98166.13;5042901;28;20040;-38
2023/10/01 02:11:18;;;;;;;14.75;7.82;;;11.00;99.90;;;10.55;100.00;98153.09;5044063;28;20033;-37
2023/10/01 02:13:46;;;;;;;13.63;7.13;;;11.00;99.90;;;10.61;100.00;98158.25;5046012;28;20030;-37
2023/10/01 02:18:58;;;;;;;16.45;7.45;;;11.00;99.90;;;10.54;100.00;98144.31;5019966;28;20036;-37
2023/10/01 02:22:12;;;;;;;17.60;7.57;;;11.00;99.90;;;10.58;100.00;98153.88;5042884;28;20114;-37
2023/10/01 02:24:22;;;;;;;15.73;6.93;;;10.90;99.90;;;10.57;100.00;98161.84;5042639;28;20109;-37
2023/10/01 02:26:59;;;;;;;16.27;7.80;;;10.90;99.90;;;10.54;100.00;98162.78;5044117;28;20028;-37
2023/10/01 02:29:25;;;;;;;14.60;6.93;;;10.90;99.90;;;10.53;100.00;98153.13;5048341;28;20114;-37
2023/10/01 02:31:56;;;;;;;12.98;7.07;;;10.90;99.90;;;10.40;100.00;98136.75;5043501;28;20031;-37
2023/10/01 02:34:29;;;;;;;11.77;6.57;;;10.80;99.90;;;10.48;100.00;98160.28;5034659;28;20033;-37
2023/10/01 02:36:55;;;;;;;17.15;7.13;;;10.80;99.90;;;10.46;100.00;98155.06;5041488;28;20028;-37
2023/10/01 02:39:28;;;;;;;13.85;7.38;;;10.80;99.90;;;10.46;100.00;98159.47;5045024;28;20036;-37
2023/10/01 02:44:40;;;;;;;14.88;7.28;;;10.80;99.90;;;10.42;100.00;98156.03;5044504;28;20040;-39
2023/10/01 02:47:16;;;;;;;15.98;7.32;;;10.80;99.90;;;10.38;100.00;98146.47;5039287;28;20032;-37
2023/10/01 02:49:51;;;;;;;13.75;6.55;;;10.70;99.90;;;10.29;100.00;98130.84;5045074;28;20480;-37
2023/10/01 02:52:22;;;;;;;14.90;7.28;;;10.70;99.90;;;10.36;100.00;98150.91;5042413;28;20043;-37
2023/10/01 02:54:57;;;;;;;13.82;6.78;;;10.70;99.90;;;10.31;100.00;98148.38;5046440;28;20405;-37
2023/10/01 02:57:24;;;;;;;15.15;7.22;;;10.70;99.90;;;10.32;100.00;98146.63;5039176;28;20397;-37
2023/10/01 03:02:53;;;;;;;13.32;6.80;;;10.60;99.90;;;10.29;100.00;98146.66;5045220;28;20041;-37
2023/10/01 03:05:28;;;;;;;13.35;6.93;;;10.60;99.90;;;10.26;100.00;98150.22;5044799;28;20526;-37
2023/10/01 03:08:04;;;;;;;14.27;6.95;;;10.60;99.90;;;10.26;100.00;98146.72;5048974;28;20036;-37
2023/10/01 03:10:32;;;;;;;13.43;7.03;;;10.60;99.90;;;10.24;100.00;98144.13;5047427;28;20143;-37
2023/10/01 03:13:15;;;;;;;13.27;7.10;;;10.60;99.90;;;10.24;100.00;98144.13;5050041;28;20466;-38
2023/10/01 03:15:42;;;;;;;;;;;10.60;99.90;;;10.24;100.00;98140.63;5048218;28;20854;-37
2023/10/01 03:18:08;;;;;;;12.40;7.30;;;10.60;99.90;;;10.23;100.00;98141.53;5035008;28;19924;-37
2023/10/01 03:23:11;;;;;;;15.00;7.35;;;10.60;99.90;;;10.21;100.00;98138.94;5042701;28;20036;-37
2023/10/01 03:25:42;;;;;;;;;;;10.60;99.90;;;10.19;100.00;98147.78;5041512;28;20024;-37
2023/10/01 03:28:14;;;;;;;14.48;6.95;;;10.50;99.90;;;10.19;100.00;98139.88;5042295;28;20308;-37
2023/10/01 03:30:46;;;;;;;13.13;6.78;;;10.50;99.90;;;10.18;100.00;98141.66;5038086;28;20179;-37
2023/10/01 03:33:16;;;;;;;12.98;7.22;;;10.50;99.90;;;10.12;100.00;98137.38;5036388;28;20052;-37
2023/10/01 03:35:48;;;;;;;12.02;6.85;;;10.50;99.90;;;10.16;100.00;98143.47;5044417;28;20093;-37
2023/10/01 03:38:15;;;;;;;13.75;7.15;;;10.50;99.90;;;10.17;100.00;98149.59;5044067;28;20037;-37
2023/10/01 03:41:00;;;;;;;11.82;6.40;;;10.50;99.90;;;10.15;100.00;98143.47;5042537;28;20079;-37
2023/10/01 03:43:35;;;;;;;13.60;7.03;;;10.50;99.90;;;10.13;100.00;98141.75;5043678;28;20028;-37
2023/10/01 03:46:31;;;;;;;13.15;6.80;;;10.50;99.90;;;10.11;100.00;98140.91;5037767;28;20355;-37
2023/10/01 03:48:58;;;;;;;13.40;6.13;;;10.50;99.90;;;10.02;100.00;98127.09;5039154;28;20402;-37
2023/10/01 03:54:14;;;;;;;10.80;6.80;;;10.40;99.90;;;10.07;100.00;98139.25;5041341;28;21131;-37
2023/10/01 03:56:47;;;;;;;13.85;7.18;;;10.40;99.90;;;9.98;100.00;98126.31;5041960;28;20464;-39
2023/10/01 03:59:16;;;;;;;15.98;7.43;;;10.40;99.90;;;10.03;100.00;98132.34;5021033;28;20766;-37
2023/10/01 04:02:00;;;;;;;14.75;6.97;;;10.40;99.90;;;10.06;100.00;98134.88;5039092;28;20535;-37
2023/10/01 04:04:56;;;;;;;15.35;6.60;;;10.40;99.90;;;10.06;100.00;98132.25;5038397;28;20029;-37
2023/10/01 04:07:18;;;;;;;13.43;6.57;;;10.40;99.90;;;10.05;100.00;98133.16;5040369;28;20032;-37
2023/10/01 04:09:47;;;;;;;12.95;7.03;;;10.50;99.90;;;10.06;100.00;98128.75;5036577;28;20051;-39
2023/10/01 04:12:27;;;;;;;13.57;7.05;;;10.40;99.90;;;10.01;100.00;98120.06;5038453;28;20029;-37
2023/10/01 04:14:53;;;;;;;13.85;7.25;;;10.40;99.90;;;10.05;100.00;98132.28;5042211;28;20033;-36
2023/10/01 04:17:20;;;;;;;17.90;7.45;;;10.40;99.90;;;10.05;100.00;98132.28;5021468;28;20691;-37
2023/10/01 04:19:52;;;;;;;16.45;7.63;;;10.40;99.90;;;10.02;100.00;98132.38;5045711;28;20032;-36
2023/10/01 04:22:21;;;;;;;11.95;7.53;;;10.40;99.90;;;10.03;100.00;98128.81;5041355;28;20463;-37
2023/10/01 04:25:00;;;;;;;13.35;6.70;;;10.40;99.90;;;9.99;100.00;98130.66;5043663;28;20039;-37
2023/10/01 04:27:34;;;;;;;14.77;7.13;;;10.40;99.90;;;9.92;100.00;98121.16;5045114;28;20731;-37
2023/10/01 04:30:01;;;;;;;14.13;6.95;;;10.40;99.90;;;9.98;100.00;98126.31;5039191;28;20526;-38
2023/10/01 04:32:27;;;;;;;15.32;7.28;;;10.40;99.90;;;9.98;100.00;98128.94;5040255;28;20464;-37
2023/10/01 04:34:56;;;;;;;14.50;7.00;;;10.40;99.90;;;9.98;100.00;98138.59;5024256;28;20040;-39
2023/10/01 04:37:37;;;;;;;11.23;6.65;;;10.40;99.90;;;9.89;100.00;98119.47;5041565;28;20028;-37
2023/10/01 04:42:56;;;;;;;12.05;7.38;;;10.30;99.90;;;9.92;100.00;98132.59;5037563;28;20067;-37
2023/10/01 04:45:25;;;;;;;12.20;6.75;;;10.30;99.90;;;9.87;100.00;98117.75;5038971;28;20036;-37
2023/10/01 04:48:00;;;;;;;13.65;7.22;;;10.30;99.90;;;9.89;100.00;98121.25;5046424;28;20013;-37
2023/10/01 04:50:29;;;;;;;18.17;8.15;;;10.30;99.90;;;9.84;100.00;98099.41;5047044;28;20036;-37
2023/10/01 04:52:59;;;;;;;14.98;7.20;;;10.30;99.90;;;9.83;100.00;98097.66;5044267;28;20221;-37
2023/10/01 04:55:28;;;;;;;13.13;7.15;;;10.30;99.90;;;9.89;100.00;98110.72;5047285;28;20852;-37
2023/10/01 04:57:56;;;;;;;15.88;7.53;;;10.30;99.90;;;9.90;100.00;98102.75;5045839;28;20044;-37
2023/10/01 05:00:25;;;;;;;13.23;7.18;;;10.30;99.90;;;9.77;100.00;98088.13;5044917;28;20025;-39
2023/10/01 05:02:52;;;;;;;13.88;7.35;;;10.30;99.90;;;9.85;100.00;98099.38;5043703;28;20036;-37
2023/10/01 05:05:25;;;;;;;16.95;7.72;;;10.30;99.90;;;9.88;100.00;98106.31;5042890;28;20068;-37
2023/10/01 05:08:00;;;;;;;12.20;6.97;;;10.30;99.90;;;9.87;100.00;98113.38;5045819;28;20033;-37
2023/10/01 05:10:26;;;;;;;12.98;6.78;;;10.30;99.90;;;9.81;100.00;98113.50;5028345;28;20060;-37
2023/10/01 05:12:58;;;;;;;13.32;7.03;;;10.30;99.90;;;9.88;100.00;98130.03;5051366;28;20059;-37
2023/10/01 05:15:27;;;;;;;13.88;7.05;;;10.30;99.90;;;9.84;100.00;98144.19;5041429;28;20444;-37
2023/10/01 05:17:55;;;;;;;14.68;6.90;;;10.30;99.90;;;9.84;100.00;98141.56;5044823;28;20040;-38
2023/10/01 05:20:25;;;;;;;11.90;7.00;;;10.30;99.90;;;9.85;100.00;98148.53;5043745;28;20098;-37
2023/10/01 05:22:54;;;;;;;12.60;6.43;;;10.30;99.90;;;9.84;100.00;98146.81;5042683;28;20111;-37
2023/10/01 05:25:21;;;;;;;10.82;6.50;;;10.30;99.90;;;9.81;100.00;98145.09;5044142;28;20453;-37
2023/10/01 05:27:47;;;;;;;11.90;6.07;;;10.30;99.90;;;9.86;100.00;98152.91;5028362;28;20044;-37
2023/10/01 05:32:58;;;;;;;14.57;7.22;;;10.30;99.90;;;9.88;100.00;98162.50;5039181;28;20047;-38
2023/10/01 05:35:25;;;;;;;15.75;7.45;;;10.30;99.90;;;9.89;100.00;98159.00;5041748;28;20040;-37
2023/10/01 05:37:51;;;;;;;17.63;7.20;;;10.30;99.90;;;9.92;100.00;98158.94;5042694;28;20028;-37
2023/10/01 05:40:16;;;;;;;14.50;7.18;;;10.30;99.90;;;9.92;100.00;98158.03;5026352;28;20064;-37
2023/10/01 05:42:44;;;;;;;14.90;7.20;;;10.30;99.90;;;9.94;100.00;98162.41;5032278;28;23261;-37
2023/10/01 05:45:36;;;;;;;17.95;7.38;;;10.40;99.90;;;10.00;100.00;98164.03;5039982;28;20037;-37
2023/10/01 05:48:02;;;;;;;;;;;10.40;99.90;;;9.84;100.00;98123.09;5040277;28;20033;-37
2023/10/01 05:50:29;;;;;;;11.65;6.30;;;10.50;99.90;;;10.13;100.00;98167.25;5041966;28;19920;-37
2023/10/01 05:52:55;;;;;;;12.38;6.78;;;10.60;99.90;;;10.17;100.00;98168.03;5042112;28;20044;-37
2023/10/01 05:55:23;;;;;;;16.85;7.75;;;10.60;99.90;;;10.23;100.00;98168.78;5040553;28;20044;-37
2023/10/01 05:57:50;;;;;;;12.07;7.25;;;10.60;99.90;;;10.28;100.00;98172.16;5042590;28;20381;-37
2023/10/01 06:00:25;;;;;;;20.27;7.40;;;10.70;99.90;;;10.35;100.00;98182.59;5040242;28;20590;-37
2023/10/01 06:03:00;;;;;;;12.80;6.65;;;10.70;99.90;;;10.40;100.00;98180.72;5041481;28;20169;-38
2023/10/01 06:05:33;;;;;;;15.43;7.28;;;10.80;99.90;;;10.41;100.00;98171.88;5027995;28;20040;-37
2023/10/01 06:08:12;;;;;;;12.68;6.88;;;10.80;99.90;;;10.49;100.00;98173.44;5019710;28;20044;-37
2023/10/01 06:10:59;;;;;;;14.30;7.70;;;10.90;99.90;;;10.54;100.00;98180.41;5048349;28;20075;-37
2023/10/01 06:13:28;;;;;;;18.10;8.45;;;10.90;99.90;;;10.59;100.00;98184.66;5046532;28;20048;-37
2023/10/01 06:15:57;;;;;;;13.80;7.45;;;11.00;99.90;;;10.64;100.00;98189.78;5049141;28;20035;-38
2023/10/01 06:18:25;;;;;;;13.57;7.10;;;11.10;99.90;;;10.69;100.00;98194.09;5042843;28;20032;-38
2023/10/01 06:20:51;;;;;;;12.18;7.20;;;11.10;99.90;;;10.76;100.00;98186.00;5047307;28;20108;-37
2023/10/01 06:23:17;;;;;;;13.13;6.68;;;11.20;99.90;;;10.77;100.00;98182.47;5042099;28;20427;-37
2023/10/01 06:25:48;;;;;;;13.38;6.10;;;11.20;99.90;;;10.86;100.00;98185.72;5040561;28;20142;-38
2023/10/01 06:28:20;;;;;;;12.15;6.97;;;11.20;99.90;;;10.89;100.00;98185.66;5037869;28;20029;-38
2023/10/01 06:30:48;;;;;;;13.82;7.50;;;11.30;99.90;;;10.94;100.00;98182.88;5040204;28;20456;-38
2023/10/01 06:33:29;;;;;;;11.73;6.93;;;11.30;99.90;;;10.98;100.00;98181.03;5036209;28;20040;-37
2023/10/01 06:36:15;;;;;;;15.00;7.45;;;11.40;99.90;;;11.03;100.00;98180.00;5043129;28;20341;-38
2023/10/01 06:38:45;;;;;;;15.77;7.15;;;11.40;99.90;;;11.09;100.00;98186.91;5041640;28;20105;-38
2023/10/01 06:41:19;;;;;;;13.20;7.10;;;11.50;99.90;;;11.17;100.00;98195.47;5039908;28;20028;-37
2023/10/01 06:43:49;;;;;;;10.55;6.75;;;11.50;99.90;;;11.24;100.00;98196.19;5040169;28;21612;-37
2023/10/01 06:46:29;;;;;;;12.50;6.82;;;11.60;99.90;;;11.30;100.00;98195.16;5033162;28;20037;-37
2023/10/01 06:48:58;;;;;;;13.38;6.13;;;11.70;99.90;;;11.35;100.00;98198.53;5043951;28;20052;-38
2023/10/01 06:51:26;;;;;;;11.10;6.30;;;11.80;99.90;;;11.45;100.00;98198.25;5043672;28;20028;-37
2023/10/01 06:53:59;;;;;;;12.57;6.03;;;11.90;99.90;;;11.52;100.00;98204.22;5033780;28;20056;-37
2023/10/01 06:56:29;;;;;;;12.75;7.07;;;12.00;99.90;;;11.58;100.00;98201.41;5035817;28;20031;-38
2023/10/01 06:59:12;;;;;;;13.63;6.65;;;12.00;99.90;;;11.67;100.00;98208.22;5043872;28;20363;-38
2023/10/01 07:01:42;;;;;;;12.23;6.88;;;12.10;99.90;;;11.75;100.00;98210.63;5034020;28;20501;-38
2023/10/01 07:04:11;;;;;;;12.75;6.97;;;12.20;99.90;;;11.81;100.00;98202.53;5039307;28;20135;-41
2023/10/01 07:06:39;;;;;;;11.50;6.45;;;12.20;99.90;;;11.90;100.00;98204.94;5048058;28;20040;-38
2023/10/01 07:09:24;;;;;;;14.23;6.88;;;12.30;99.90;;;11.98;100.00;98208.19;5043661;28;20036;-38
2023/10/01 07:11:57;;;;;;;12.70;6.63;;;12.40;99.90;;;12.11;100.00;98210.47;5053304;28;20429;-37
2023/10/01 07:14:44;;;;;;;16.40;7.03;;;12.50;99.90;;;12.19;100.00;98214.63;5048339;28;20056;-38
2023/10/01 07:17:14;;;;;;;12.32;6.30;;;12.60;99.90;;;12.29;100.00;98222.28;5049212;28;20029;-37
2023/10/01 07:19:59;;;;;;;12.05;7.13;;;12.60;99.90;;;12.35;100.00;98219.47;5046206;28;20024;-38
2023/10/01 07:22:31;;;;;;;16.90;7.55;;;12.70;99.90;;;12.38;100.00;98214.94;5049243;28;20089;-37
2023/10/01 07:25:02;;;;;;;13.77;7.07;;;12.80;99.90;;;12.48;100.00;98215.50;5049581;28;20055;-38
2023/10/01 07:27:28;;;;;;;12.50;6.75;;;12.80;99.90;;;12.55;100.00;98218.84;5039307;28;20906;-37
2023/10/01 07:29:54;;;;;;;12.93;6.13;;;12.90;99.90;;;12.64;100.00;98221.19;5051491;28;20032;-38
2023/10/01 07:32:22;;;;;;;13.45;6.80;;;13.00;99.90;;;12.71;100.00;98220.06;5052452;28;20108;-37
2023/10/01 07:34:55;;;;;;;11.52;6.75;;;13.10;99.90;;;12.80;100.00;98225.06;5042933;28;20086;-39
2023/10/01 07:37:25;;;;;;;11.38;6.05;;;13.20;99.90;;;12.91;100.00;98229.13;5040159;28;20029;-38
2023/10/01 07:39:55;;;;;;;10.13;5.93;;;13.20;99.90;;;12.98;100.00;98239.47;5024483;28;20099;-38
2023/10/01 07:42:27;;;;;;;12.82;6.18;;;13.40;99.90;;;13.08;100.00;98244.44;5039466;28;20051;-37
2023/10/01 07:44:53;;;;;;;11.13;6.05;;;13.40;99.90;;;13.16;100.00;98240.63;5042361;28;20036;-38
2023/10/01 07:47:31;;;;;;;11.80;6.13;;;13.50;99.90;;;13.28;100.00;98243.78;5031729;28;20437;-38
2023/10/01 07:50:12;;;;;;;13.80;6.57;;;13.60;99.90;;;13.35;100.00;98245.31;5042727;28;20045;-40
2023/10/01 07:52:41;;;;;;;13.02;6.60;;;13.70;99.90;;;13.42;100.00;98246.84;5044509;28;20037;-37
2023/10/01 07:55:29;;;;;;;13.15;7.10;;;13.80;99.90;;;13.41;100.00;98239.81;5041391;28;20036;-39
2023/10/01 08:00:43;;;;;;;13.45;7.25;;;13.90;99.90;;;13.58;100.00;98236.56;5038545;28;20097;-38
2023/10/01 08:05:48;;;;;;;11.80;6.20;;;14.10;99.90;;;13.83;100.00;98249.81;5037363;28;20055;-37
2023/10/01 08:08:37;;;;;;;14.60;7.28;;;14.20;99.90;;;13.94;100.00;98252.94;5035246;28;20500;-38
2023/10/01 08:11:03;;;;;;;14.35;6.82;;;14.30;99.90;;;14.03;100.00;98251.75;5042072;28;20032;-37
2023/10/01 08:13:30;;;;;;;11.07;6.05;;;14.40;99.90;;;14.16;100.00;98252.16;5039240;28;20040;-38
2023/10/01 08:16:02;;;;;;;11.40;5.95;;;14.50;99.90;;;14.26;100.00;98244.69;5032243;28;20664;-37
2023/10/01 08:18:42;;;;;;;11.70;5.88;;;14.60;99.90;;;14.44;100.00;98251.06;5034067;28;20081;-37
2023/10/01 08:21:17;;;;;;;11.32;5.65;;;14.70;99.90;;;14.60;100.00;98249.56;5040914;28;20058;-39
2023/10/01 08:23:54;;;;;;;13.15;5.40;;;14.90;99.90;;;14.77;100.00;98248.91;5040738;28;20277;-37
2023/10/01 08:26:43;;;;;;;11.55;6.45;;;15.00;99.90;;;14.97;100.00;98257.88;5038304;28;20044;-38
2023/10/01 08:29:08;;;;;;;10.15;5.70;;;15.20;99.90;;;15.16;100.00;98263.25;5041799;28;20170;-38
2023/10/01 08:34:22;;;;;;;8.52;4.90;;;15.50;99.90;;;15.42;100.00;98252.41;5032836;28;20133;-37
2023/10/01 08:36:55;;;;;;;10.98;5.50;;;15.70;99.90;;;15.62;100.00;98258.66;5042024;28;20031;-38
2023/10/01 08:39:33;;;;;;;9.93;5.18;;;15.80;99.90;;;15.74;100.00;98255.47;5045298;28;20035;-38
2023/10/01 08:42:11;;;;;;;10.68;5.55;;;15.90;99.90;;;15.86;100.00;98261.19;5049496;28;20081;-37
2023/10/01 08:44:51;;;;;;;10.32;6.05;;;16.00;99.90;;;15.96;100.00;98254.53;5037695;28;20788;-39
2023/10/01 08:47:31;;;;;;;11.40;6.00;;;16.10;99.90;;;16.04;100.00;98263.00;5040302;28;20040;-38
2023/10/01 08:52:57;;;;;;;11.93;6.15;;;16.30;99.90;;;16.16;100.00;98250.94;5043603;28;20098;-38
2023/10/01 08:55:24;;;;;;;14.27;6.13;;;16.30;99.90;;;16.22;100.00;98256.88;5036843;28;20531;-39
2023/10/01 08:57:53;;;;;;;12.40;6.28;;;16.40;99.90;;;16.27;100.00;98255.78;5049148;28;20500;-38
2023/10/01 09:00:23;;;;;;;11.32;5.63;;;16.50;99.90;;;16.39;100.00;98255.22;5047199;28;20028;-39
2023/10/01 09:03:26;;;;;;;10.77;5.53;;;16.60;99.90;;;16.47;100.00;98249.50;5038213;28;20150;-38
2023/10/01 09:05:46;;;;;;;14.25;6.85;;;16.60;99.90;;;16.55;100.00;98258.00;5042891;28;20453;-37
2023/10/01 09:08:29;;;;;;;13.27;5.77;;;16.70;99.90;;;16.64;100.00;98257.56;5046166;28;20021;-37
2023/10/01 09:10:55;;;;;;;11.70;5.57;;;16.80;99.90;;;16.70;100.00;98251.94;5043548;28;20033;-38
2023/10/01 09:13:21;;;;;;;11.40;5.57;;;16.90;99.90;;;16.76;100.00;98256.09;5026723;28;20028;-37
2023/10/01 09:15:55;;;;;;;11.45;5.05;;;16.90;99.90;;;16.83;100.00;98257.56;5043972;28;20044;-38
2023/10/01 09:18:23;;;;;;;10.93;5.78;;;17.00;99.90;;;16.89;100.00;98259.94;5037331;28;20455;-38
2023/10/01 09:23:55;;;;;;;14.00;7.00;;;17.10;99.90;;;16.95;100.00;98254.31;5044662;28;20043;-40
2023/10/01 09:26:37;;;;;;;9.13;5.30;;;17.20;99.90;;;17.08;100.00;98259.88;5048161;28;20142;-39
2023/10/01 09:29:13;;;;;;;;;;;17.20;99.90;;;17.18;100.00;98245.16;5051883;28;20093;-38
2023/10/01 09:31:56;;;;;;;11.07;5.70;;;17.30;99.90;;;17.26;100.00;98247.44;5048039;28;19921;-38
2023/10/01 09:34:31;;;;;;;10.55;5.30;;;17.40;99.90;;;17.35;100.00;98248.78;5042784;28;21018;-38
2023/10/01 09:37:07;;;;;;;12.32;5.35;;;17.50;99.90;;;17.42;100.00;98254.66;5051800;28;20158;-38
2023/10/01 09:39:41;;;;;;;14.65;5.95;;;17.60;99.90;;;17.46;100.00;98254.44;5050956;28;20039;-38
2023/10/01 09:42:24;;;;;;;13.10;6.00;;;17.60;99.90;;;17.49;100.00;98256.06;5047270;28;20024;-38
2023/10/01 09:44:53;;;;;;;12.63;6.20;;;17.60;99.90;;;17.55;100.00;98253.13;5053197;28;20032;-38
2023/10/01 09:47:24;;;;;;;13.35;6.07;;;17.70;99.90;;;17.60;100.00;98252.84;5047536;28;20040;-38
2023/10/01 09:49:54;;;;;;;11.82;6.00;;;17.70;99.90;;;17.65;100.00;98251.66;5052745;28;20058;-41
2023/10/01 09:52:30;;;;;;;11.02;5.82;;;17.80;99.90;;;17.73;100.00;98251.28;5057474;28;20069;-38
2023/10/01 09:55:24;;;;;;;14.70;6.25;;;17.90;99.90;;;17.74;100.00;98248.50;5059066;28;22199;-38
2023/10/01 09:57:52;;;;;;;12.15;5.68;;;17.90;99.90;;;17.78;100.00;98235.03;5056796;28;20036;-39
2023/10/01 10:00:20;;;;;;;9.77;5.00;;;18.00;99.90;;;17.93;100.00;98243.13;5040507;28;20068;-40
2023/10/01 10:02:51;;;;;;;11.10;5.50;;;18.10;99.90;;;17.98;100.00;98242.88;5059460;28;20024;-40
2023/10/01 10:05:28;;;;;;;13.02;5.60;;;18.10;99.90;;;17.96;100.00;98236.72;5059690;28;20033;-39
2023/10/01 10:08:13;;;;;;;12.02;5.72;;;18.10;99.90;;;17.84;100.00;98208.03;5056949;28;20714;-38
2023/10/01 10:10:48;;;;;;;11.15;5.57;;;18.10;99.90;;;18.01;100.00;98224.00;5054915;28;20122;-38
2023/10/01 10:13:46;;;;;;;11.68;6.65;;;18.10;99.90;;;18.06;100.00;98221.97;5040204;28;20079;-40
2023/10/01 10:16:32;;;;;;;12.02;6.10;;;18.20;99.90;;;18.17;100.00;98220.53;5054105;28;20037;-39
2023/10/01 10:19:20;;;;;;;11.45;5.93;;;18.30;99.90;;;18.22;100.00;98213.13;5050980;28;20122;-39
2023/10/01 10:24:50;;;;;;;10.30;5.47;;;18.40;99.90;;;18.33;100.00;98210.72;5056230;28;20067;-38
2023/10/01 10:27:24;;;;;;;10.80;5.55;;;18.50;99.90;;;18.38;100.00;98207.81;5056397;28;20108;-38
2023/10/01 10:29:56;;;;;;;12.30;5.80;;;18.50;99.90;;;18.43;100.00;98206.59;5058521;28;20036;-38
2023/10/01 10:33:16;;;;;;;12.38;5.90;;;18.60;99.90;;;18.47;100.00;98201.94;5056857;28;20029;-41
2023/10/01 10:35:51;;;;;;;13.55;6.00;;;18.60;99.90;;;18.49;94.62;98202.72;5057972;28;20044;-39
2023/10/01 10:38:51;;;;;;;17.23;6.55;;;18.60;99.90;;;18.52;98.80;98197.19;5035616;28;20105;-39
2023/10/01 10:41:19;;;;;;;14.05;6.10;;;18.70;99.90;;;18.54;99.46;98199.75;5056290;28;20158;-39
2023/10/01 10:44:08;;;;;;;16.98;6.45;;;18.70;99.90;;;18.54;98.43;98192.63;5028463;28;20396;-38
2023/10/01 10:47:12;;;;;;;14.57;6.30;;;18.80;99.90;;;18.57;95.88;98191.59;5058233;28;20292;-39
2023/10/01 10:49:51;;;;;;;14.13;6.72;;;18.80;99.90;;;18.57;95.27;98168.41;4997189;23;20055;-42
2023/10/01 10:52:32;;;;;;;12.80;5.43;;;18.90;99.90;;;18.74;95.98;98183.47;5048094;28;20067;-39
2023/10/01 10:55:17;;;;;;;11.32;5.65;;;18.90;99.90;;;18.80;96.02;98196.47;5031393;28;20031;-39
2023/10/01 10:57:51;;;;;;;14.02;6.63;;;19.00;99.90;;;18.82;96.47;98197.25;5045185;28;20033;-39
2023/10/01 11:00:24;;;;;;;12.65;6.28;;;19.00;99.90;;;18.87;97.75;98184.50;5053317;28;20033;-38
2023/10/01 11:02:56;;;;;;;12.15;6.55;;;19.10;99.90;;;18.90;97.92;98194.16;5052518;28;20497;-40
2023/10/01 11:05:32;;;;;;;14.93;6.47;;;19.10;99.90;;;18.96;96.64;98190.28;5050926;28;20041;-40
2023/10/01 11:07:59;;;;;;;13.27;5.88;;;19.20;99.90;;;19.02;95.26;98192.56;5047564;28;20452;-39